createdAt,value
2017-10-25T00:00:06.104Z,0
2017-10-25T00:01:06.120Z,0
2017-10-25T00:02:06.056Z,0
2017-10-25T00:03:05.710Z,0
2017-10-25T00:04:06.013Z,0
2017-10-25T00:05:05.984Z,0
2017-10-25T00:06:05.963Z,0
2017-10-25T00:07:05.956Z,0
2017-10-25T00:08:05.922Z,0
2017-10-25T00:09:05.900Z,0
2017-10-25T00:10:05.879Z,0
2017-10-25T00:11:05.857Z,0
2017-10-25T00:12:05.844Z,0
2017-10-25T00:13:05.824Z,0
2017-10-25T00:14:05.785Z,0
2017-10-25T00:15:05.777Z,0
2017-10-25T00:16:05.744Z,0
2017-10-25T00:17:05.753Z,0
2017-10-25T00:18:05.712Z,0
2017-10-25T00:19:05.693Z,0
2017-10-25T00:20:05.350Z,0
2017-10-25T00:21:05.654Z,0
2017-10-25T00:22:05.303Z,0
2017-10-25T00:23:05.595Z,0
2017-10-25T00:24:05.570Z,0
2017-10-25T00:25:05.559Z,0
2017-10-25T00:26:05.209Z,0
2017-10-25T00:27:05.519Z,0
2017-10-25T00:28:05.502Z,0
2017-10-25T00:29:05.469Z,0
2017-10-25T00:30:05.449Z,0
2017-10-25T00:31:05.427Z,0
2017-10-25T00:32:05.083Z,0
2017-10-25T00:33:05.065Z,0
2017-10-25T00:34:05.362Z,0
2017-10-25T00:35:05.026Z,0
2017-10-25T00:36:05.357Z,0
2017-10-25T00:37:05.309Z,0
2017-10-25T00:38:05.290Z,0
2017-10-25T00:39:05.258Z,0
2017-10-25T00:40:05.238Z,0
2017-10-25T00:41:05.218Z,0
2017-10-25T00:42:05.201Z,0
2017-10-25T00:43:05.189Z,0
2017-10-25T00:44:05.150Z,0
2017-10-25T00:45:05.121Z,0
2017-10-25T00:46:05.122Z,0
2017-10-25T00:47:05.089Z,0
2017-10-25T00:48:05.059Z,0
2017-10-25T00:49:05.037Z,0
2017-10-25T00:50:05.027Z,0
2017-10-25T00:51:04.998Z,0
2017-10-25T00:52:04.968Z,0
2017-10-25T00:53:04.960Z,0
2017-10-25T00:54:04.942Z,0
2017-10-25T00:55:04.919Z,0
2017-10-25T00:56:04.891Z,0
2017-10-25T00:57:04.866Z,0
2017-10-25T00:58:04.835Z,0
2017-10-25T00:59:04.828Z,0
2017-10-25T01:00:04.812Z,0
2017-10-25T01:01:04.460Z,0
2017-10-25T01:02:04.762Z,0
2017-10-25T01:03:04.737Z,0
2017-10-25T01:04:04.732Z,0
2017-10-25T01:05:04.692Z,0
2017-10-25T01:06:04.664Z,0
2017-10-25T01:07:04.654Z,0
2017-10-25T01:08:04.641Z,0
2017-10-25T01:09:04.607Z,0
2017-10-25T01:10:04.585Z,0
2017-10-25T01:11:04.570Z,0
2017-10-25T01:12:04.563Z,0
2017-10-25T01:13:04.519Z,0
2017-10-25T01:14:04.497Z,0
2017-10-25T01:15:04.489Z,0
2017-10-25T01:16:04.448Z,0
2017-10-25T01:17:04.443Z,0
2017-10-25T01:18:04.110Z,0
2017-10-25T01:19:04.399Z,0
2017-10-25T01:20:04.369Z,0
2017-10-25T01:21:04.343Z,0
2017-10-25T01:22:04.334Z,0
2017-10-25T01:23:04.303Z,0
2017-10-25T01:24:04.289Z,0
2017-10-25T01:25:03.946Z,0
2017-10-25T01:26:04.233Z,0
2017-10-25T01:27:04.216Z,0
2017-10-25T01:28:04.190Z,0
2017-10-25T01:29:04.193Z,0
2017-10-25T01:30:04.154Z,0
2017-10-25T01:31:04.143Z,0
2017-10-25T01:32:03.796Z,0
2017-10-25T01:33:03.767Z,0
2017-10-25T01:34:04.088Z,0
2017-10-25T01:35:04.052Z,0
2017-10-25T01:36:04.022Z,0
2017-10-25T01:37:04.006Z,0
2017-10-25T01:38:03.989Z,0
2017-10-25T01:39:03.958Z,0
2017-10-25T01:40:03.944Z,0
2017-10-25T01:41:03.595Z,0
2017-10-25T01:42:03.902Z,0
2017-10-25T01:43:03.891Z,0
2017-10-25T01:44:03.860Z,0
2017-10-25T01:45:03.827Z,0
2017-10-25T01:46:03.854Z,0
2017-10-25T01:47:03.797Z,0
2017-10-25T01:48:03.766Z,0
2017-10-25T01:49:03.739Z,0
2017-10-25T01:50:03.725Z,0
2017-10-25T01:51:03.386Z,0
2017-10-25T01:52:03.689Z,0
2017-10-25T01:53:03.662Z,0
2017-10-25T01:54:03.315Z,0
2017-10-25T01:55:03.619Z,0
2017-10-25T01:56:03.617Z,0
2017-10-25T01:57:03.580Z,0
2017-10-25T01:58:03.601Z,0
2017-10-25T01:59:03.207Z,0
2017-10-25T02:00:03.509Z,0
2017-10-25T02:01:03.845Z,0
2017-10-25T02:02:03.462Z,0
2017-10-25T02:03:03.449Z,0
2017-10-25T02:04:03.429Z,0
2017-10-25T02:05:03.411Z,0
2017-10-25T02:06:03.393Z,0
2017-10-25T02:07:03.358Z,0
2017-10-25T02:08:03.012Z,0
2017-10-25T02:09:03.308Z,0
2017-10-25T02:10:03.300Z,0
2017-10-25T02:11:02.959Z,0
2017-10-25T02:12:03.264Z,0
2017-10-25T02:13:03.238Z,0
2017-10-25T02:14:03.211Z,0
2017-10-25T02:15:03.188Z,0
2017-10-25T02:16:02.844Z,0
2017-10-25T02:17:02.822Z,0
2017-10-25T02:18:03.129Z,0
2017-10-25T02:19:03.097Z,0
2017-10-25T02:20:03.092Z,0
2017-10-25T02:21:03.049Z,0
2017-10-25T02:22:03.032Z,0
2017-10-25T02:23:03.010Z,0
2017-10-25T02:24:02.980Z,0
2017-10-25T02:25:02.972Z,0
2017-10-25T02:26:02.953Z,0
2017-10-25T02:27:02.921Z,0
2017-10-25T02:28:02.902Z,0
2017-10-25T02:29:02.561Z,0
2017-10-25T02:30:02.538Z,0
2017-10-25T02:31:02.853Z,0
2017-10-25T02:32:02.819Z,0
2017-10-25T02:33:02.804Z,0
2017-10-25T02:34:02.807Z,0
2017-10-25T02:35:02.754Z,0
2017-10-25T02:36:02.748Z,0
2017-10-25T02:37:02.715Z,0
2017-10-25T02:38:02.688Z,0
2017-10-25T02:39:02.668Z,0
2017-10-25T02:40:02.646Z,0
2017-10-25T02:41:02.621Z,0
2017-10-25T02:42:02.608Z,0
2017-10-25T02:43:02.583Z,0
2017-10-25T02:44:02.553Z,0
2017-10-25T02:45:02.538Z,0
2017-10-25T02:46:02.517Z,0
2017-10-25T02:47:02.500Z,0
2017-10-25T02:48:02.484Z,0
2017-10-25T02:49:02.460Z,0
2017-10-25T02:50:02.440Z,0
2017-10-25T02:51:02.414Z,0
2017-10-25T02:52:02.066Z,0
2017-10-25T02:53:02.362Z,0
2017-10-25T02:54:02.037Z,0
2017-10-25T02:55:02.322Z,0
2017-10-25T02:56:02.301Z,0
2017-10-25T02:57:02.296Z,0
2017-10-25T02:58:02.268Z,0
2017-10-25T02:59:02.232Z,0
2017-10-25T03:00:02.215Z,0
2017-10-25T03:01:02.205Z,0
2017-10-25T03:02:02.172Z,0
2017-10-25T03:03:02.150Z,0
2017-10-25T03:04:02.130Z,0
2017-10-25T03:05:01.777Z,0
2017-10-25T03:06:02.096Z,0
2017-10-25T03:07:02.060Z,0
2017-10-25T03:08:02.045Z,0
2017-10-25T03:09:02.019Z,0
2017-10-25T03:10:02.001Z,0
2017-10-25T03:11:01.974Z,0
2017-10-25T03:12:01.956Z,0
2017-10-25T03:13:01.928Z,0
2017-10-25T03:14:01.595Z,0
2017-10-25T03:15:01.893Z,0
2017-10-25T03:16:01.878Z,0
2017-10-25T03:17:01.859Z,0
2017-10-25T03:18:01.833Z,0
2017-10-25T03:19:01.809Z,0
2017-10-25T03:20:01.774Z,0
2017-10-25T03:21:01.772Z,0
2017-10-25T03:22:01.764Z,0
2017-10-25T03:23:01.717Z,0
2017-10-25T03:24:01.706Z,0
2017-10-25T03:25:01.671Z,0
2017-10-25T03:26:01.660Z,0
2017-10-25T03:27:01.642Z,0
2017-10-25T03:28:01.609Z,0
2017-10-25T03:29:01.580Z,0
2017-10-25T03:30:01.557Z,0
2017-10-25T03:31:01.552Z,0
2017-10-25T03:32:01.532Z,0
2017-10-25T03:33:01.498Z,0
2017-10-25T03:34:01.479Z,0
2017-10-25T03:35:01.457Z,0
2017-10-25T03:36:01.461Z,0
2017-10-25T03:37:01.402Z,0
2017-10-25T03:38:01.404Z,0
2017-10-25T03:39:01.370Z,0
2017-10-25T03:40:01.356Z,0
2017-10-25T03:41:01.333Z,0
2017-10-25T03:42:00.978Z,0
2017-10-25T03:43:01.287Z,0
2017-10-25T03:44:01.264Z,0
2017-10-25T03:45:01.238Z,0
2017-10-25T03:46:01.221Z,0
2017-10-25T03:47:01.196Z,0
2017-10-25T03:48:01.167Z,0
2017-10-25T03:49:01.149Z,0
2017-10-25T03:50:01.124Z,0
2017-10-25T03:51:01.129Z,0
2017-10-25T03:52:01.089Z,0
2017-10-25T03:53:01.062Z,0
2017-10-25T03:54:01.067Z,0
2017-10-25T03:55:01.028Z,0
2017-10-25T03:56:01.005Z,0
2017-10-25T03:57:00.980Z,0
2017-10-25T03:58:00.960Z,0
2017-10-25T03:59:00.619Z,0
2017-10-25T04:00:00.917Z,0
2017-10-25T04:01:00.893Z,0
2017-10-25T04:02:00.876Z,0
2017-10-25T04:03:00.852Z,0
2017-10-25T04:04:00.832Z,0
2017-10-25T04:05:00.814Z,0
2017-10-25T04:06:00.783Z,0
2017-10-25T04:07:00.759Z,0
2017-10-25T04:08:00.749Z,0
2017-10-25T04:09:00.723Z,0
2017-10-25T04:10:00.702Z,0
2017-10-25T04:11:00.697Z,0
2017-10-25T04:12:00.660Z,0
2017-10-25T04:13:00.630Z,0
2017-10-25T04:14:00.618Z,0
2017-10-25T04:15:00.614Z,0
2017-10-25T04:16:00.580Z,0
2017-10-25T04:17:00.556Z,0
2017-10-25T04:18:00.528Z,0
2017-10-25T04:19:00.188Z,0
2017-10-25T04:20:00.493Z,0
2017-10-25T04:21:00.462Z,0
2017-10-25T04:22:00.436Z,0
2017-10-25T04:23:00.425Z,0
2017-10-25T04:24:00.403Z,0
2017-10-25T04:24:59.746Z,0
2017-10-25T04:26:00.376Z,0
2017-10-25T04:27:00.017Z,0
2017-10-25T04:28:00.311Z,0
2017-10-25T04:28:59.979Z,0
2017-10-25T04:30:00.268Z,0
2017-10-25T04:31:00.248Z,0
2017-10-25T04:32:00.229Z,0
2017-10-25T04:33:00.206Z,0
2017-10-25T04:34:00.213Z,0
2017-10-25T04:35:00.159Z,0
2017-10-25T04:35:59.817Z,0
2017-10-25T04:37:00.127Z,0
2017-10-25T04:38:00.502Z,0
2017-10-25T04:39:00.074Z,0
2017-10-25T04:40:00.048Z,0
2017-10-25T04:41:00.030Z,0
2017-10-25T04:42:00.004Z,0
2017-10-25T04:42:59.988Z,0
2017-10-25T04:43:59.653Z,0
2017-10-25T04:44:59.945Z,0
2017-10-25T04:45:59.951Z,0
2017-10-25T04:46:59.925Z,0
2017-10-25T04:47:59.885Z,0
2017-10-25T04:48:59.859Z,0
2017-10-25T04:49:59.520Z,0
2017-10-25T04:50:59.506Z,0
2017-10-25T04:51:59.816Z,0
2017-10-25T04:52:59.456Z,0
2017-10-25T04:53:59.799Z,0
2017-10-25T04:54:59.723Z,0
2017-10-25T04:55:59.706Z,0
2017-10-25T04:56:59.691Z,0
2017-10-25T04:57:59.667Z,0
2017-10-25T04:58:59.674Z,0
2017-10-25T04:59:59.625Z,0
2017-10-25T05:00:59.608Z,0
2017-10-25T05:01:59.581Z,0
2017-10-25T05:02:59.564Z,0
2017-10-25T05:03:58.971Z,0
2017-10-25T05:04:59.524Z,0
2017-10-25T05:05:59.498Z,0
2017-10-25T05:06:59.475Z,0
2017-10-25T05:07:59.481Z,0
2017-10-25T05:08:59.424Z,0
2017-10-25T05:09:59.097Z,0
2017-10-25T05:10:59.075Z,0
2017-10-25T05:11:59.372Z,0
2017-10-25T05:12:59.367Z,0
2017-10-25T05:13:59.318Z,0
2017-10-25T05:14:59.309Z,0
2017-10-25T05:15:59.282Z,0
2017-10-25T05:16:59.275Z,0
2017-10-25T05:17:59.242Z,0
2017-10-25T05:18:59.217Z,0
2017-10-25T05:19:59.188Z,0
2017-10-25T05:20:59.179Z,0
2017-10-25T05:21:59.147Z,0
2017-10-25T05:22:59.139Z,0
2017-10-25T05:23:59.108Z,0
2017-10-25T05:24:59.099Z,0
2017-10-25T05:25:59.062Z,0
2017-10-25T05:26:59.392Z,0
2017-10-25T05:27:59.015Z,0
2017-10-25T05:28:59.008Z,0
2017-10-25T05:29:59.011Z,0
2017-10-25T05:30:58.962Z,0
2017-10-25T05:31:58.935Z,0
2017-10-25T05:32:58.919Z,0
2017-10-25T05:33:58.890Z,0
2017-10-25T05:34:58.867Z,0
2017-10-25T05:35:58.846Z,0
2017-10-25T05:36:58.826Z,0
2017-10-25T05:37:58.813Z,0
2017-10-25T05:38:58.782Z,0
2017-10-25T05:39:58.762Z,0
2017-10-25T05:40:58.754Z,0
2017-10-25T05:41:58.086Z,0
2017-10-25T05:42:58.724Z,0
2017-10-25T05:43:58.684Z,0
2017-10-25T05:44:58.653Z,0
2017-10-25T05:45:58.632Z,4
2017-10-25T05:46:58.619Z,4
2017-10-25T05:47:58.587Z,4
2017-10-25T05:48:58.574Z,4
2017-10-25T05:49:58.238Z,4
2017-10-25T05:50:58.517Z,8
2017-10-25T05:51:58.536Z,4
2017-10-25T05:52:58.484Z,8
2017-10-25T05:53:58.464Z,8
2017-10-25T05:54:58.442Z,8
2017-10-25T05:55:58.425Z,12
2017-10-25T05:56:58.393Z,16
2017-10-25T05:57:58.379Z,20
2017-10-25T05:58:58.360Z,28
2017-10-25T05:59:58.330Z,24
2017-10-25T06:00:58.313Z,24
2017-10-25T06:01:58.288Z,28
2017-10-25T06:02:58.263Z,28
2017-10-25T06:03:57.924Z,36
2017-10-25T06:04:58.222Z,48
2017-10-25T06:05:58.203Z,68
2017-10-25T06:06:58.180Z,76
2017-10-25T06:07:58.176Z,92
2017-10-25T06:08:58.149Z,100
2017-10-25T06:09:58.116Z,116
2017-10-25T06:10:57.778Z,136
2017-10-25T06:11:58.073Z,140
2017-10-25T06:12:58.047Z,156
2017-10-25T06:13:58.032Z,172
2017-10-25T06:14:58.008Z,176
2017-10-25T06:15:57.983Z,192
2017-10-25T06:16:57.641Z,208
2017-10-25T06:17:57.942Z,224
2017-10-25T06:18:57.939Z,260
2017-10-25T06:19:57.896Z,276
2017-10-25T06:20:57.886Z,288
2017-10-25T06:21:57.871Z,272
2017-10-25T06:22:57.830Z,300
2017-10-25T06:23:57.503Z,332
2017-10-25T06:24:57.787Z,336
2017-10-25T06:25:57.777Z,336
2017-10-25T06:26:57.744Z,384
2017-10-25T06:27:57.726Z,468
2017-10-25T06:28:57.704Z,540
2017-10-25T06:29:57.676Z,604
2017-10-25T06:30:57.656Z,656
2017-10-25T06:31:57.649Z,700
2017-10-25T06:32:57.619Z,740
2017-10-25T06:33:57.600Z,764
2017-10-25T06:34:57.564Z,776
2017-10-25T06:35:57.555Z,832
2017-10-25T06:36:57.527Z,860
2017-10-25T06:37:57.507Z,948
2017-10-25T06:38:57.495Z,992
2017-10-25T06:39:57.482Z,1064
2017-10-25T06:40:57.440Z,984
2017-10-25T06:41:57.419Z,980
2017-10-25T06:42:57.407Z,1096
2017-10-25T06:43:57.381Z,1300
2017-10-25T06:44:57.373Z,1328
2017-10-25T06:45:57.325Z,1232
2017-10-25T06:46:57.318Z,1020
2017-10-25T06:47:57.306Z,824
2017-10-25T06:48:57.278Z,784
2017-10-25T06:49:57.253Z,1040
2017-10-25T06:50:57.230Z,1516
2017-10-25T06:51:57.198Z,1696
2017-10-25T06:52:57.200Z,1220
2017-10-25T06:53:56.847Z,932
2017-10-25T06:54:57.141Z,1376
2017-10-25T06:55:56.797Z,1400
2017-10-25T06:56:57.094Z,1612
2017-10-25T06:57:57.075Z,1928
2017-10-25T06:58:56.730Z,1848
2017-10-25T06:59:57.043Z,1816
2017-10-25T07:00:57.326Z,1688
2017-10-25T07:01:57.013Z,2364
2017-10-25T07:02:56.976Z,2464
2017-10-25T07:03:56.953Z,2476
2017-10-25T07:04:56.943Z,1996
2017-10-25T07:05:56.894Z,1680
2017-10-25T07:06:56.875Z,2332
2017-10-25T07:07:56.851Z,2800
2017-10-25T07:08:56.852Z,2932
2017-10-25T07:09:56.825Z,2964
2017-10-25T07:10:56.797Z,3064
2017-10-25T07:11:56.450Z,3200
2017-10-25T07:12:56.766Z,3004
2017-10-25T07:13:56.729Z,2600
2017-10-25T07:14:56.706Z,2964
2017-10-25T07:15:56.357Z,2900
2017-10-25T07:16:56.672Z,2864
2017-10-25T07:17:56.643Z,2492
2017-10-25T07:18:56.616Z,2032
2017-10-25T07:19:56.281Z,1988
2017-10-25T07:20:56.585Z,2140
2017-10-25T07:21:56.560Z,2960
2017-10-25T07:22:56.541Z,3364
2017-10-25T07:23:56.514Z,4036
2017-10-25T07:24:56.530Z,3956
2017-10-25T07:25:56.471Z,4108
2017-10-25T07:26:56.459Z,3964
2017-10-25T07:27:56.423Z,3888
2017-10-25T07:28:56.410Z,3924
2017-10-25T07:29:56.381Z,4132
2017-10-25T07:30:56.377Z,4352
2017-10-25T07:31:56.347Z,4384
2017-10-25T07:32:56.323Z,4496
2017-10-25T07:33:56.302Z,4576
2017-10-25T07:34:55.955Z,4664
2017-10-25T07:35:55.938Z,4480
2017-10-25T07:36:56.238Z,4808
2017-10-25T07:37:56.217Z,5456
2017-10-25T07:38:56.197Z,5720
2017-10-25T07:39:56.184Z,5376
2017-10-25T07:40:56.155Z,5464
2017-10-25T07:41:56.147Z,5432
2017-10-25T07:42:56.113Z,4900
2017-10-25T07:43:56.094Z,4564
2017-10-25T07:44:56.068Z,4952
2017-10-25T07:45:55.742Z,5320
2017-10-25T07:46:55.721Z,5272
2017-10-25T07:47:55.682Z,5616
2017-10-25T07:48:55.987Z,6564
2017-10-25T07:49:56.006Z,6792
2017-10-25T07:50:55.955Z,7348
2017-10-25T07:51:55.602Z,6484
2017-10-25T07:52:55.899Z,8604
2017-10-25T07:53:55.889Z,8480
2017-10-25T07:54:55.547Z,8748
2017-10-25T07:55:55.522Z,9240
2017-10-25T07:56:55.834Z,9816
2017-10-25T07:57:55.806Z,9308
2017-10-25T07:58:55.794Z,8492
2017-10-25T07:59:55.755Z,8812
2017-10-25T08:00:55.737Z,7836
2017-10-25T08:01:55.729Z,8204
2017-10-25T08:02:55.697Z,7936
2017-10-25T08:03:55.680Z,8020
2017-10-25T08:04:55.363Z,8364
2017-10-25T08:05:55.322Z,8244
2017-10-25T08:06:55.300Z,8284
2017-10-25T08:07:55.594Z,7936
2017-10-25T08:08:55.583Z,8320
2017-10-25T08:09:55.570Z,8072
2017-10-25T08:10:55.540Z,9000
2017-10-25T08:11:55.523Z,8864
2017-10-25T08:12:55.500Z,8228
2017-10-25T08:13:55.500Z,9336
2017-10-25T08:14:55.145Z,9076
2017-10-25T08:15:55.437Z,7568
2017-10-25T08:16:55.442Z,8852
2017-10-25T08:17:55.402Z,7132
2017-10-25T08:18:55.389Z,7972
2017-10-25T08:19:55.383Z,7604
2017-10-25T08:20:55.351Z,7500
2017-10-25T08:21:55.330Z,7160
2017-10-25T08:22:55.322Z,7776
2017-10-25T08:23:55.289Z,10120
2017-10-25T08:24:55.271Z,10224
2017-10-25T08:25:55.272Z,11188
2017-10-25T08:26:55.238Z,10568
2017-10-25T08:27:55.208Z,9332
2017-10-25T08:28:55.198Z,8764
2017-10-25T08:29:55.179Z,8068
2017-10-25T08:30:55.152Z,7544
2017-10-25T08:31:55.169Z,6696
2017-10-25T08:32:55.127Z,5280
2017-10-25T08:33:55.101Z,4976
2017-10-25T08:34:55.169Z,6580
2017-10-25T08:35:55.151Z,6408
2017-10-25T08:36:55.072Z,7892
2017-10-25T08:37:55.175Z,6852
2017-10-25T08:38:55.127Z,6940
2017-10-25T08:39:55.037Z,7228
2017-10-25T08:40:54.996Z,6912
2017-10-25T08:41:55.004Z,5788
2017-10-25T08:42:54.613Z,3956
2017-10-25T08:43:54.913Z,4188
2017-10-25T08:44:54.898Z,4400
2017-10-25T08:45:54.884Z,3908
2017-10-25T08:46:54.851Z,3196
2017-10-25T08:47:54.517Z,3120
2017-10-25T08:48:54.814Z,3732
2017-10-25T08:49:54.819Z,3996
2017-10-25T08:50:54.446Z,3932
2017-10-25T08:51:54.758Z,4068
2017-10-25T08:52:54.730Z,4652
2017-10-25T08:53:54.708Z,5540
2017-10-25T08:54:54.706Z,6780
2017-10-25T08:55:54.670Z,6688
2017-10-25T08:56:54.651Z,7500
2017-10-25T08:57:54.626Z,9632
2017-10-25T08:58:54.614Z,8484
2017-10-25T08:59:54.594Z,11116
2017-10-25T09:00:54.247Z,10464
2017-10-25T09:01:54.557Z,12032
2017-10-25T09:02:54.535Z,11168
2017-10-25T09:03:54.517Z,11196
2017-10-25T09:04:54.498Z,9244
2017-10-25T09:05:54.465Z,9584
2017-10-25T09:06:54.442Z,9284
2017-10-25T09:07:53.803Z,9204
2017-10-25T09:08:54.406Z,9528
2017-10-25T09:09:54.385Z,8856
2017-10-25T09:10:54.369Z,8804
2017-10-25T09:11:54.357Z,7636
2017-10-25T09:12:54.331Z,6204
2017-10-25T09:13:54.298Z,6192
2017-10-25T09:14:54.282Z,8420
2017-10-25T09:15:54.289Z,9024
2017-10-25T09:16:54.249Z,8168
2017-10-25T09:17:54.233Z,9368
2017-10-25T09:18:54.210Z,12032
2017-10-25T09:19:54.180Z,12156
2017-10-25T09:20:54.155Z,10964
2017-10-25T09:21:54.141Z,8712
2017-10-25T09:22:54.136Z,10076
2017-10-25T09:23:54.116Z,10392
2017-10-25T09:24:54.088Z,9620
2017-10-25T09:25:53.745Z,10316
2017-10-25T09:26:54.046Z,9336
2017-10-25T09:27:54.029Z,9216
2017-10-25T09:28:54.013Z,9464
2017-10-25T09:29:53.996Z,9356
2017-10-25T09:30:53.965Z,9800
2017-10-25T09:31:53.958Z,10028
2017-10-25T09:32:53.934Z,9112
2017-10-25T09:33:53.912Z,7940
2017-10-25T09:34:53.885Z,8532
2017-10-25T09:35:53.864Z,7036
2017-10-25T09:36:53.844Z,5824
2017-10-25T09:37:53.828Z,5452
2017-10-25T09:38:53.804Z,5196
2017-10-25T09:39:53.789Z,4792
2017-10-25T09:40:53.765Z,5424
2017-10-25T09:41:53.427Z,4244
2017-10-25T09:42:53.721Z,3580
2017-10-25T09:43:53.729Z,4968
2017-10-25T09:44:53.692Z,8716
2017-10-25T09:45:53.667Z,9784
2017-10-25T09:46:53.654Z,7992
2017-10-25T09:47:53.621Z,6780
2017-10-25T09:48:53.609Z,5632
2017-10-25T09:49:53.590Z,4476
2017-10-25T09:50:53.568Z,3632
2017-10-25T09:51:53.554Z,3736
2017-10-25T09:52:53.520Z,3264
2017-10-25T09:53:53.503Z,2388
2017-10-25T09:54:53.162Z,3020
2017-10-25T09:55:53.471Z,3328
2017-10-25T09:56:53.126Z,4676
2017-10-25T09:57:53.099Z,5792
2017-10-25T09:58:53.405Z,6004
2017-10-25T09:59:53.375Z,5756
2017-10-25T10:00:53.363Z,5452
2017-10-25T10:01:53.335Z,5284
2017-10-25T10:02:53.317Z,4652
2017-10-25T10:03:53.311Z,4088
2017-10-25T10:04:52.960Z,4148
2017-10-25T10:05:53.265Z,4548
2017-10-25T10:06:53.244Z,4316
2017-10-25T10:07:53.218Z,4236
2017-10-25T10:08:53.195Z,3800
2017-10-25T10:09:53.176Z,3600
2017-10-25T10:10:53.191Z,3712
2017-10-25T10:11:53.133Z,3984
2017-10-25T10:12:53.102Z,4308
2017-10-25T10:13:53.087Z,4256
2017-10-25T10:14:53.077Z,4372
2017-10-25T10:15:53.067Z,5528
2017-10-25T10:16:53.034Z,6560
2017-10-25T10:17:53.015Z,6884
2017-10-25T10:18:52.993Z,7208
2017-10-25T10:19:52.999Z,7940
2017-10-25T10:20:52.942Z,8608
2017-10-25T10:21:52.933Z,8880
2017-10-25T10:22:52.907Z,9388
2017-10-25T10:23:52.888Z,10480
2017-10-25T10:24:52.861Z,10720
2017-10-25T10:25:52.863Z,9956
2017-10-25T10:26:52.826Z,10044
2017-10-25T10:27:52.800Z,10524
2017-10-25T10:28:52.462Z,11588
2017-10-25T10:29:52.768Z,12968
2017-10-25T10:30:52.734Z,13204
2017-10-25T10:31:52.723Z,12028
2017-10-25T10:32:52.708Z,10164
2017-10-25T10:33:52.678Z,8900
2017-10-25T10:34:52.654Z,8144
2017-10-25T10:35:52.326Z,7984
2017-10-25T10:36:52.613Z,8576
2017-10-25T10:37:52.596Z,8984
2017-10-25T10:38:52.579Z,8104
2017-10-25T10:39:52.560Z,8076
2017-10-25T10:40:52.538Z,8556
2017-10-25T10:41:52.518Z,9176
2017-10-25T10:42:52.496Z,9556
2017-10-25T10:43:52.479Z,9584
2017-10-25T10:44:52.453Z,9516
2017-10-25T10:45:52.435Z,8048
2017-10-25T10:46:52.433Z,7312
2017-10-25T10:47:52.076Z,7496
2017-10-25T10:48:52.053Z,7612
2017-10-25T10:49:52.354Z,7700
2017-10-25T10:50:52.336Z,6716
2017-10-25T10:51:51.998Z,5932
2017-10-25T10:52:51.976Z,5344
2017-10-25T10:53:52.290Z,4492
2017-10-25T10:54:52.252Z,5192
2017-10-25T10:55:52.237Z,5252
2017-10-25T10:56:52.208Z,5844
2017-10-25T10:57:52.187Z,6980
2017-10-25T10:58:51.860Z,7868
2017-10-25T10:59:52.180Z,5888
2017-10-25T11:00:51.809Z,3992
2017-10-25T11:01:52.114Z,3604
2017-10-25T11:02:52.092Z,3288
2017-10-25T11:03:52.075Z,2572
2017-10-25T11:04:52.046Z,2884
2017-10-25T11:05:51.391Z,2684
2017-10-25T11:06:51.998Z,2472
2017-10-25T11:07:51.998Z,2732
2017-10-25T11:08:51.960Z,3144
2017-10-25T11:09:51.949Z,3992
2017-10-25T11:10:51.291Z,4064
2017-10-25T11:11:51.584Z,3692
2017-10-25T11:12:51.877Z,3928
2017-10-25T11:13:51.553Z,3780
2017-10-25T11:14:51.839Z,3464
2017-10-25T11:15:51.821Z,2928
2017-10-25T11:16:51.798Z,2692
2017-10-25T11:17:51.781Z,2268
2017-10-25T11:18:51.770Z,2760
2017-10-25T11:19:51.727Z,3344
2017-10-25T11:20:51.399Z,2664
2017-10-25T11:21:52.046Z,3508
2017-10-25T11:22:51.697Z,4020
2017-10-25T11:23:51.662Z,4148
2017-10-25T11:24:51.638Z,4564
2017-10-25T11:25:51.624Z,4304
2017-10-25T11:26:51.590Z,4792
2017-10-25T11:27:51.567Z,5096
2017-10-25T11:28:51.900Z,5648
2017-10-25T11:29:51.533Z,8184
2017-10-25T11:30:51.515Z,8216
2017-10-25T11:31:51.488Z,8780
2017-10-25T11:32:51.483Z,8860
2017-10-25T11:33:51.142Z,9380
2017-10-25T11:34:51.433Z,8776
2017-10-25T11:35:51.410Z,8372
2017-10-25T11:36:51.149Z,9460
2017-10-25T11:37:51.365Z,8608
2017-10-25T11:38:51.397Z,10020
2017-10-25T11:39:51.341Z,10248
2017-10-25T11:40:50.974Z,10268
2017-10-25T11:41:51.281Z,10216
2017-10-25T11:42:51.260Z,10940
2017-10-25T11:43:50.603Z,9864
2017-10-25T11:44:51.243Z,8632
2017-10-25T11:45:50.893Z,9436
2017-10-25T11:46:51.183Z,9520
2017-10-25T11:47:51.213Z,8724
2017-10-25T11:48:51.156Z,7952
2017-10-25T11:49:51.147Z,6408
2017-10-25T11:50:50.789Z,7408
2017-10-25T11:51:51.098Z,6952
2017-10-25T11:52:50.730Z,6764
2017-10-25T11:53:51.041Z,6152
2017-10-25T11:54:51.038Z,5972
2017-10-25T11:55:51.008Z,5576
2017-10-25T11:56:51.001Z,5472
2017-10-25T11:57:50.972Z,5540
2017-10-25T11:58:51.008Z,5284
2017-10-25T11:59:50.930Z,5464
2017-10-25T12:00:50.619Z,5852
2017-10-25T12:01:50.878Z,6164
2017-10-25T12:02:50.877Z,5964
2017-10-25T12:03:50.860Z,5320
2017-10-25T12:04:50.818Z,5204
2017-10-25T12:05:50.814Z,5720
2017-10-25T12:06:50.438Z,6268
2017-10-25T12:07:50.739Z,5988
2017-10-25T12:08:50.797Z,5476
2017-10-25T12:09:50.059Z,5824
2017-10-25T12:10:50.672Z,5592
2017-10-25T12:11:50.784Z,5824
2017-10-25T12:12:50.670Z,5988
2017-10-25T12:13:50.645Z,6300
2017-10-25T12:14:50.603Z,5444
2017-10-25T12:15:50.620Z,4572
2017-10-25T12:16:50.231Z,4588
2017-10-25T12:17:50.538Z,4432
2017-10-25T12:18:50.196Z,4560
2017-10-25T12:19:50.573Z,4568
2017-10-25T12:20:50.475Z,4364
2017-10-25T12:21:50.141Z,3636
2017-10-25T12:22:50.438Z,5064
2017-10-25T12:23:50.421Z,5988
2017-10-25T12:24:50.392Z,5456
2017-10-25T12:25:49.729Z,5308
2017-10-25T12:26:50.030Z,4340
2017-10-25T12:27:50.364Z,4756
2017-10-25T12:28:50.327Z,4784
2017-10-25T12:29:49.978Z,5488
2017-10-25T12:30:50.325Z,5064
2017-10-25T12:31:50.254Z,5348
2017-10-25T12:32:50.246Z,7356
2017-10-25T12:33:49.891Z,5072
2017-10-25T12:34:50.197Z,6028
2017-10-25T12:35:50.158Z,6896
2017-10-25T12:36:50.133Z,7308
2017-10-25T12:37:50.110Z,6660
2017-10-25T12:38:50.102Z,5756
2017-10-25T12:39:50.069Z,5944
2017-10-25T12:40:50.046Z,5856
2017-10-25T12:41:50.033Z,5580
2017-10-25T12:42:50.016Z,6400
2017-10-25T12:43:49.983Z,7260
2017-10-25T12:44:49.646Z,6040
2017-10-25T12:45:49.961Z,6324
2017-10-25T12:46:49.618Z,5904
2017-10-25T12:47:49.900Z,6092
2017-10-25T12:48:49.891Z,5012
2017-10-25T12:49:49.856Z,5088
2017-10-25T12:50:49.851Z,4948
2017-10-25T12:51:49.831Z,4156
2017-10-25T12:52:49.790Z,3976
2017-10-25T12:53:49.774Z,3728
2017-10-25T12:54:49.751Z,3700
2017-10-25T12:55:49.415Z,3612
2017-10-25T12:56:49.716Z,4068
2017-10-25T12:57:49.404Z,3916
2017-10-25T12:58:49.672Z,4028
2017-10-25T12:59:49.644Z,3720
2017-10-25T13:00:49.630Z,3188
2017-10-25T13:01:49.607Z,3372
2017-10-25T13:02:49.590Z,3332
2017-10-25T13:03:49.570Z,2836
2017-10-25T13:04:49.547Z,3172
2017-10-25T13:05:49.194Z,2700
2017-10-25T13:06:49.506Z,3344
2017-10-25T13:07:49.483Z,3444
2017-10-25T13:08:49.458Z,3200
2017-10-25T13:09:49.140Z,2700
2017-10-25T13:10:49.415Z,3256
2017-10-25T13:11:49.403Z,3488
2017-10-25T13:12:49.054Z,3304
2017-10-25T13:13:49.357Z,3508
2017-10-25T13:14:49.324Z,3036
2017-10-25T13:15:49.003Z,3840
2017-10-25T13:16:49.289Z,3608
2017-10-25T13:17:49.267Z,2968
2017-10-25T13:18:49.241Z,3276
2017-10-25T13:19:49.226Z,2840
2017-10-25T13:20:49.204Z,2592
2017-10-25T13:21:49.280Z,2676
2017-10-25T13:22:48.837Z,2664
2017-10-25T13:23:49.145Z,2100
2017-10-25T13:24:49.118Z,2020
2017-10-25T13:25:49.093Z,2132
2017-10-25T13:26:48.762Z,2204
2017-10-25T13:27:48.735Z,2104
2017-10-25T13:28:48.728Z,2072
2017-10-25T13:29:48.700Z,2460
2017-10-25T13:30:48.692Z,2356
2017-10-25T13:31:48.974Z,2296
2017-10-25T13:32:48.945Z,2164
2017-10-25T13:33:48.928Z,2488
2017-10-25T13:34:48.909Z,2588
2017-10-25T13:35:48.879Z,2748
2017-10-25T13:36:48.844Z,2968
2017-10-25T13:37:48.838Z,2652
2017-10-25T13:38:48.821Z,2568
2017-10-25T13:39:48.792Z,2764
2017-10-25T13:40:48.771Z,2472
2017-10-25T13:41:48.746Z,2780
2017-10-25T13:42:48.410Z,2120
2017-10-25T13:43:48.385Z,2196
2017-10-25T13:44:48.686Z,1888
2017-10-25T13:45:48.339Z,2156
2017-10-25T13:46:48.649Z,1900
2017-10-25T13:47:48.294Z,2016
2017-10-25T13:48:48.636Z,2104
2017-10-25T13:49:48.573Z,1484
2017-10-25T13:50:48.548Z,1628
2017-10-25T13:51:48.546Z,1368
2017-10-25T13:52:48.512Z,1752
2017-10-25T13:53:48.490Z,1492
2017-10-25T13:54:48.811Z,1876